Time;durP1;ratioP1;P1;durP2;ratioP2;P2;SDS_P1;SDS_P2;PMS_P1;PMS_P2;Temp;Humidity;BMP_temperature;BMP_pressure;BME280_temperature;BME280_humidity;BME280_pressure;Samples;Min_cycle;Max_cycle;Signal;HPM_P1;HPM_P2
2021/01/31 00:00:58;;;;;;;20.40;9.83;;;;;;;3.54;80.73;94858.16;5095027;28;20443;-68
2021/01/31 00:03:27;;;;;;;19.40;10.03;;;;;;;3.82;80.55;94865.53;5092753;28;21070;-66
2021/01/31 00:05:55;;;;;;;13.20;10.20;;;;;;;4.25;79.12;94860.00;5093179;28;20942;-69
2021/01/31 00:08:23;;;;;;;12.03;9.07;;;;;;;4.04;79.80;94861.38;5092879;28;20654;-68
2021/01/31 00:10:49;;;;;;;13.63;10.50;;;;;;;4.16;78.72;94864.41;5089067;28;20440;-67
2021/01/31 00:13:16;;;;;;;12.10;9.53;;;;;;;4.08;78.68;94864.47;5093438;28;20462;-67
2021/01/31 00:15:45;;;;;;;11.20;9.07;;;;;;;3.99;79.06;94863.69;5093219;28;20738;-67
2021/01/31 00:18:12;;;;;;;13.77;10.07;;;;;;;3.92;80.06;94860.97;5091405;28;20415;-68
2021/01/31 00:20:39;;;;;;;14.30;10.87;;;;;;;3.73;79.58;94864.75;5091928;28;20427;-67
2021/01/31 00:23:06;;;;;;;13.20;9.87;;;;;;;3.95;79.93;94865.00;5093063;28;20423;-67
2021/01/31 00:25:32;;;;;;;14.07;10.20;;;;;;;4.34;78.06;94860.78;5092313;28;20427;-67
2021/01/31 00:27:58;;;;;;;12.30;10.07;;;;;;;4.45;77.37;94868.94;5092120;28;20416;-67
2021/01/31 00:30:35;;;;;;;13.97;11.03;;;;;;;4.31;77.51;94877.44;5092876;28;20447;-66
2021/01/31 00:33:04;;;;;;;12.17;10.03;;;;;;;3.72;79.08;94880.47;5092573;28;20552;-68
2021/01/31 00:35:33;;;;;;;14.23;9.87;;;;;;;4.04;79.28;94884.69;5092798;28;20416;-68
2021/01/31 00:37:59;;;;;;;13.43;10.50;;;;;;;4.11;78.77;94887.44;5092289;28;20914;-68
2021/01/31 00:40:25;;;;;;;12.13;10.23;;;;;;;4.12;78.59;94879.50;5092997;28;20465;-68
2021/01/31 00:42:50;;;;;;;12.87;10.47;;;;;;;4.19;77.56;94886.59;5092825;28;20531;-67
2021/01/31 00:45:20;;;;;;;12.80;10.70;;;;;;;4.16;77.96;94882.56;5091480;28;20170;-67
2021/01/31 00:47:46;;;;;;;14.60;11.60;;;;;;;3.80;78.60;94885.63;5092463;28;20186;-67
2021/01/31 00:50:17;;;;;;;12.80;10.37;;;;;;;4.08;78.34;94892.97;5093591;28;20447;-67
2021/01/31 00:52:43;;;;;;;14.43;10.93;;;;;;;4.40;77.27;94889.41;5094007;28;20416;-68
2021/01/31 00:55:09;;;;;;;13.27;10.00;;;;;;;4.49;76.93;94886.78;5094933;28;20455;-67
2021/01/31 00:57:35;;;;;;;14.00;10.90;;;;;;;4.43;77.19;94889.06;5095589;28;20266;-67
2021/01/31 01:00:01;;;;;;;13.90;10.70;;;;;;;4.38;76.66;94882.78;5091805;28;20475;-68
2021/01/31 01:02:26;;;;;;;14.83;11.27;;;;;;;4.52;75.90;94889.81;5092767;28;20299;-67
2021/01/31 01:04:52;;;;;;;14.67;11.50;;;;;;;4.55;76.14;94880.88;5091581;28;20430;-69
2021/01/31 01:07:18;;;;;;;14.90;10.90;;;;;;;4.66;75.45;94883.13;5092733;28;20258;-67
2021/01/31 01:09:47;;;;;;;15.30;12.23;;;;;;;4.45;75.56;94888.91;5092605;28;20231;-67
2021/01/31 01:12:13;;;;;;;14.93;11.50;;;;;;;4.30;76.74;94891.41;5092198;28;20423;-69
2021/01/31 01:14:39;;;;;;;16.67;12.27;;;;;;;3.98;76.78;94893.97;5090083;28;20416;-69
2021/01/31 01:17:05;;;;;;;14.70;11.43;;;;;;;4.42;76.42;94887.44;5092594;28;20431;-68
2021/01/31 01:19:31;;;;;;;14.30;11.00;;;;;;;4.49;76.22;94892.75;5091885;28;20946;-67
2021/01/31 01:21:57;;;;;;;15.37;11.20;;;;;;;4.71;75.54;94891.16;5090224;28;20477;-69
2021/01/31 01:24:23;;;;;;;14.87;11.87;;;;;;;4.68;75.53;94901.88;5091127;28;20178;-67
2021/01/31 01:26:48;;;;;;;15.33;12.00;;;;;;;4.80;74.75;94891.09;5091710;28;20445;-66
2021/01/31 01:29:14;;;;;;;15.63;12.20;;;;;;;4.82;74.68;94900.34;5090902;28;20448;-67
2021/01/31 01:31:40;;;;;;;18.93;12.37;;;;;;;4.83;75.00;94896.78;5089585;28;20212;-67
2021/01/31 01:34:06;;;;;;;19.80;11.97;;;;;;;4.85;75.17;94899.19;5092079;28;20452;-68
2021/01/31 01:36:32;;;;;;;25.50;13.23;;;;;;;4.48;75.36;94898.13;5092099;28;20832;-67
2021/01/31 01:38:58;;;;;;;22.73;12.33;;;;;;;4.49;76.35;94897.16;5091774;28;20416;-68
2021/01/31 01:41:24;;;;;;;16.33;12.50;;;;;;;4.68;75.94;94891.50;5090412;28;21087;-66
2021/01/31 01:43:51;;;;;;;16.17;12.60;;;;;;;4.57;75.54;94897.91;5091148;28;20201;-67
2021/01/31 01:46:17;;;;;;;14.10;11.23;;;;;;;4.32;76.34;94905.00;5091352;28;20514;-68
2021/01/31 01:48:46;;;;;;;15.60;11.87;;;;;;;4.59;75.76;94900.31;5090825;28;20455;-71
2021/01/31 01:51:15;;;;;;;15.80;11.93;;;;;;;4.63;75.26;94905.97;5091001;28;20181;-67
2021/01/31 01:53:41;;;;;;;17.70;12.87;;;;;;;4.79;74.72;94910.28;5091578;28;20451;-68
2021/01/31 01:56:22;;;;;;;38.73;14.03;;;;;;;4.33;75.40;94904.03;5086455;28;21029;-67
2021/01/31 01:58:47;;;;;;;17.30;12.57;;;;;;;4.78;75.07;94908.66;5090031;28;20416;-67
2021/01/31 02:01:16;;;;;;;21.33;12.40;;;;;;;5.02;74.18;94905.88;5089462;28;20420;-67
2021/01/31 02:03:43;;;;;;;22.07;13.23;;;;;;;4.96;73.84;94903.19;5090388;28;20208;-66
2021/01/31 02:06:22;;;;;;;17.30;12.97;;;;;;;4.75;74.67;94895.03;5090417;28;20416;-67
2021/01/31 02:08:49;;;;;;;18.30;13.17;;;;;;;4.81;74.48;94900.50;5089999;28;20451;-67
2021/01/31 02:11:16;;;;;;;49.30;15.53;;;;;;;4.90;74.49;94900.28;5086406;28;20519;-66
2021/01/31 02:13:45;;;;;;;17.20;12.47;;;;;;;4.76;74.94;94901.84;5091635;28;20438;-65
2021/01/31 02:16:15;;;;;;;16.53;12.43;;;;;;;4.89;73.74;94901.25;5068652;28;20503;-65
2021/01/31 02:18:50;;;;;;;18.60;13.60;;;;;;;4.91;74.36;94908.91;5077564;28;20446;-67
2021/01/31 02:21:53;;;;;;;18.03;13.23;;;;;;;5.01;74.47;94913.84;5089654;28;20407;-68
2021/01/31 02:24:54;;;;;;;15.87;12.50;;;;;;;4.67;74.71;94913.25;5091002;28;20399;-69
2021/01/31 02:27:54;;;;;;;16.93;13.70;;;;;;;4.87;73.92;94920.59;5091347;28;20412;-67
2021/01/31 02:30:44;;;;;;;16.87;12.67;;;;;;;4.82;73.93;94921.13;5091135;28;20475;-68
2021/01/31 02:33:32;;;;;;;17.87;13.03;;;;;;;4.45;74.77;94925.22;5091404;28;20404;-68
2021/01/31 02:36:10;;;;;;;19.57;13.10;;;;;;;4.13;75.30;94922.59;5089354;28;20412;-69
2021/01/31 02:38:44;;;;;;;16.13;12.90;;;;;;;4.08;76.28;94924.88;5090382;28;20437;-68
2021/01/31 02:41:20;;;;;;;16.57;12.60;;;;;;;4.05;76.43;94930.38;5090415;28;20403;-66
2021/01/31 02:43:53;;;;;;;16.10;12.23;;;;;;;4.11;76.28;94932.31;5092406;28;20438;-67
2021/01/31 02:46:33;;;;;;;16.90;12.50;;;;;;;3.65;78.20;94932.13;5094278;28;20447;-66
2021/01/31 02:49:22;;;;;;;16.60;12.40;;;;;;;3.80;76.92;94933.06;5093904;28;20543;-67
2021/01/31 02:52:18;;;;;;;17.00;13.10;;;;;;;3.71;78.75;94944.41;5093746;28;20800;-65
2021/01/31 02:55:10;;;;;;;19.30;13.33;;;;;;;4.43;76.25;94947.91;5093975;28;20415;-70
2021/01/31 02:57:44;;;;;;;20.87;14.10;;;;;;;4.13;75.74;94943.34;5092859;28;20423;-67
2021/01/31 03:00:23;;;;;;;18.30;13.90;;;;;;;4.20;75.29;94942.66;5095826;28;20426;-68
2021/01/31 03:02:54;;;;;;;18.63;13.10;;;;;;;4.27;75.09;94939.22;5060192;28;20839;-66
2021/01/31 03:05:26;;;;;;;21.23;13.47;;;;;;;4.36;74.47;94955.56;5097753;28;20416;-67
2021/01/31 03:07:57;;;;;;;17.50;12.77;;;;;;;4.30;74.17;94953.63;5091750;28;20992;-68
2021/01/31 03:10:37;;;;;;;19.73;13.27;;;;;;;4.06;75.69;94950.16;5106779;28;20533;-67
2021/01/31 03:13:10;;;;;;;17.50;13.37;;;;;;;4.07;75.40;94948.38;5098258;28;20423;-67
2021/01/31 03:15:38;;;;;;;16.80;12.93;;;;;;;3.88;75.55;94955.53;5078361;28;21128;-68
2021/01/31 03:18:17;;;;;;;17.13;12.53;;;;;;;3.95;75.46;94953.09;5095936;28;20511;-69
2021/01/31 03:21:12;;;;;;;18.43;13.20;;;;;;;4.04;75.31;94948.72;5093656;28;20488;-67
2021/01/31 03:23:47;;;;;;;17.07;13.10;;;;;;;4.10;75.29;94958.41;5088091;28;20430;-67
2021/01/31 03:26:43;;;;;;;17.07;13.50;;;;;;;4.08;74.76;94955.97;5092578;28;20434;-68
2021/01/31 03:29:09;;;;;;;19.37;13.80;;;;;;;4.25;74.15;94950.75;5083477;28;20471;-67
2021/01/31 03:31:38;;;;;;;25.40;14.10;;;;;;;4.12;74.59;94951.25;5093202;28;20424;-68
2021/01/31 03:34:08;;;;;;;18.23;13.37;;;;;;;4.23;74.99;94950.91;5091592;28;20676;-67
2021/01/31 03:36:36;;;;;;;18.87;14.43;;;;;;;4.25;74.32;94951.53;5091555;28;20467;-67
2021/01/31 03:39:03;;;;;;;17.20;12.40;;;;;;;4.27;74.41;94946.22;5091965;28;20423;-69
2021/01/31 03:41:29;;;;;;;18.63;13.10;;;;;;;4.29;73.98;94950.25;5093070;28;20426;-65
2021/01/31 03:43:55;;;;;;;19.30;11.93;;;;;;;4.49;74.49;94941.25;5092040;28;20432;-67
2021/01/31 03:46:30;;;;;;;17.40;13.43;;;;;;;4.25;74.77;94948.16;5093282;28;20499;-68
2021/01/31 03:49:00;;;;;;;15.50;11.47;;;;;;;4.24;73.95;94944.75;5086230;28;20448;-67
2021/01/31 03:51:28;;;;;;;15.77;11.80;;;;;;;4.31;73.61;94944.88;5092264;28;20416;-68
2021/01/31 03:53:54;;;;;;;15.80;11.60;;;;;;;4.13;73.83;94947.69;5091936;28;20416;-67
2021/01/31 03:56:42;;;;;;;15.93;12.20;;;;;;;4.54;73.19;94954.50;5091818;28;20416;-65
2021/01/31 03:59:08;;;;;;;16.07;12.37;;;;;;;4.49;73.34;94967.19;5092506;28;20428;-67
2021/01/31 04:01:37;;;;;;;16.47;12.43;;;;;;;4.40;72.89;94972.41;5093057;28;20415;-68
2021/01/31 04:04:38;;;;;;;15.67;12.07;;;;;;;4.55;72.45;94975.09;5102208;28;20477;-67
2021/01/31 04:07:06;;;;;;;14.93;11.73;;;;;;;4.57;72.07;94980.09;5091792;28;20519;-67
2021/01/31 04:09:34;;;;;;;15.00;11.17;;;;;;;4.29;73.52;94990.91;5092763;28;20470;-67
2021/01/31 04:12:11;;;;;;;15.07;11.50;;;;;;;4.14;72.98;94996.81;5089665;28;20438;-67
2021/01/31 04:14:52;;;;;;;14.60;11.20;;;;;;;4.56;71.96;95001.84;5090256;28;20431;-67
2021/01/31 04:17:18;;;;;;;15.63;11.23;;;;;;;4.21;72.84;94996.13;5091525;28;20419;-67
2021/01/31 04:19:43;;;;;;;13.67;11.23;;;;;;;4.58;72.28;95000.72;5085881;28;20440;-69
2021/01/31 04:22:09;;;;;;;16.70;12.60;;;;;;;4.59;71.83;94991.13;5089258;28;20435;-64
2021/01/31 04:24:35;;;;;;;20.63;12.87;;;;;;;4.45;72.57;94992.66;5092667;28;20586;-67
2021/01/31 04:27:00;;;;;;;17.67;13.77;;;;;;;4.38;72.35;94987.34;5092369;28;20196;-66
2021/01/31 04:29:26;;;;;;;20.27;13.93;;;;;;;4.57;72.26;94993.91;5091855;28;20206;-67
2021/01/31 04:31:52;;;;;;;17.10;13.20;;;;;;;4.43;72.87;94992.81;5090986;28;20695;-67
2021/01/31 04:34:17;;;;;;;17.37;13.90;;;;;;;4.44;72.82;94996.22;5090998;28;20676;-66
2021/01/31 04:36:43;;;;;;;17.00;13.53;;;;;;;4.09;74.00;94993.88;5092272;28;20567;-67
2021/01/31 04:39:10;;;;;;;17.83;13.10;;;;;;;4.43;72.72;94992.81;5083722;28;20189;-67
2021/01/31 04:41:39;;;;;;;21.10;14.00;;;;;;;4.38;71.93;94989.09;5092034;28;20239;-66
2021/01/31 04:44:08;;;;;;;20.83;14.20;;;;;;;4.44;72.40;94993.63;5091612;28;20427;-67
2021/01/31 04:47:06;;;;;;;22.43;14.53;;;;;;;4.47;72.33;94990.72;5092270;28;20498;-67
2021/01/31 04:50:16;;;;;;;22.33;13.10;;;;;;;4.37;72.85;94985.72;5084813;28;20460;-69
2021/01/31 04:53:06;;;;;;;17.80;13.03;;;;;;;4.33;72.80;94983.63;5084324;28;20898;-67
2021/01/31 04:55:40;;;;;;;20.97;14.57;;;;;;;4.25;73.24;94981.88;5090692;28;20562;-67
2021/01/31 04:58:16;;;;;;;20.73;14.80;;;;;;;4.44;72.91;94986.63;5074033;28;20480;-68
2021/01/31 05:01:10;;;;;;;22.30;14.47;;;;;;;4.54;72.71;94993.41;5090844;28;20524;-66
2021/01/31 05:03:51;;;;;;;20.07;14.43;;;;;;;4.29;72.88;94988.31;5087884;28;20922;-67
2021/01/31 05:06:18;;;;;;;22.80;14.67;;;;;;;4.38;72.36;94987.34;5084606;28;20412;-67
2021/01/31 05:08:48;;;;;;;24.43;15.17;;;;;;;4.45;72.29;94987.47;5090310;28;20452;-67
2021/01/31 05:11:28;;;;;;;21.27;15.47;;;;;;;4.40;72.22;94989.75;5084817;28;20416;-68
2021/01/31 05:14:19;;;;;;;21.30;15.40;;;;;;;3.42;75.64;94989.75;5091800;28;20451;-69
2021/01/31 05:16:44;;;;;;;23.87;16.40;;;;;;;3.86;74.70;94978.22;5087377;28;20432;-67
2021/01/31 05:19:13;;;;;;;20.10;14.63;;;;;;;4.14;73.56;94980.44;5091391;28;20451;-69
2021/01/31 05:21:39;;;;;;;21.37;14.83;;;;;;;4.04;73.42;94974.63;5089882;28;20188;-67
2021/01/31 05:24:20;;;;;;;19.17;14.50;;;;;;;4.24;73.10;94970.66;5091494;28;20423;-67
2021/01/31 05:26:53;;;;;;;24.50;14.93;;;;;;;4.38;72.71;94971.78;5091392;28;20770;-68
2021/01/31 05:29:39;;;;;;;24.50;14.70;;;;;;;4.29;72.90;94970.16;5090814;28;20930;-68
2021/01/31 05:32:18;;;;;;;22.50;15.00;;;;;;;4.47;72.69;94975.16;5089813;28;20412;-68
2021/01/31 05:34:55;;;;;;;22.57;15.70;;;;;;;4.33;72.54;94968.84;5091754;28;20483;-67
2021/01/31 05:37:42;;;;;;;20.43;14.83;;;;;;;4.54;72.09;94975.25;5091392;28;20424;-68
2021/01/31 05:40:11;;;;;;;21.90;14.77;;;;;;;4.41;71.94;94981.00;5090901;28;20496;-68
2021/01/31 05:42:42;;;;;;;22.17;15.57;;;;;;;4.52;72.32;94985.00;5091195;28;20489;-66
2021/01/31 05:45:08;;;;;;;22.13;14.93;;;;;;;4.36;71.77;94976.31;5091562;28;20472;-67
2021/01/31 05:47:37;;;;;;;19.93;15.20;;;;;;;4.33;72.64;94981.81;5092457;28;20423;-67
2021/01/31 05:50:21;;;;;;;22.40;15.90;;;;;;;4.49;72.41;94985.34;5086056;28;20532;-68
2021/01/31 05:52:47;;;;;;;20.27;14.50;;;;;;;4.29;72.64;94994.31;5090957;28;20463;-67
2021/01/31 05:55:23;;;;;;;23.20;15.90;;;;;;;4.27;72.19;94998.06;5092829;28;20462;-69
2021/01/31 05:57:48;;;;;;;21.33;15.40;;;;;;;3.99;73.80;94998.47;5093016;28;20268;-68
2021/01/31 06:00:32;;;;;;;21.67;14.80;;;;;;;3.72;74.27;94997.06;5092320;28;20892;-68
2021/01/31 06:03:03;;;;;;;21.70;15.93;;;;;;;3.74;74.79;95000.25;5092613;28;20189;-68
2021/01/31 06:05:29;;;;;;;22.50;15.80;;;;;;;4.17;73.58;95005.19;5092183;28;20867;-67
2021/01/31 06:08:27;;;;;;;22.60;16.00;;;;;;;4.18;73.39;94997.28;5091685;28;20420;-67
2021/01/31 06:11:05;;;;;;;21.37;15.40;;;;;;;4.38;73.15;95010.66;5088602;28;20447;-69
2021/01/31 06:13:32;;;;;;;26.30;16.80;;;;;;;4.23;73.07;95010.53;5089959;28;20441;-67
2021/01/31 06:16:00;;;;;;;24.40;15.03;;;;;;;4.48;72.65;95017.44;5091183;28;20522;-67
2021/01/31 06:18:29;;;;;;;22.20;15.43;;;;;;;3.97;73.63;95021.13;5093920;28;20439;-67
2021/01/31 06:21:08;;;;;;;23.40;15.47;;;;;;;4.22;73.22;95024.47;5093026;28;20475;-68
2021/01/31 06:24:00;;;;;;;23.77;16.40;;;;;;;4.41;72.44;95022.50;5094093;28;20430;-67
2021/01/31 06:26:39;;;;;;;23.10;15.33;;;;;;;4.54;72.76;95024.53;5090977;28;20428;-68
2021/01/31 06:29:22;;;;;;;21.97;16.03;;;;;;;4.49;72.49;95032.03;5102985;28;20474;-68
2021/01/31 06:31:48;;;;;;;23.40;14.97;;;;;;;4.66;72.26;95030.19;5110732;28;20423;-68
2021/01/31 06:34:13;;;;;;;22.20;14.80;;;;;;;4.24;72.29;95034.69;5097539;28;20416;-66
2021/01/31 06:36:57;;;;;;;20.10;14.50;;;;;;;3.99;72.98;95034.75;5093749;28;20186;-69
2021/01/31 06:39:34;;;;;;;20.97;15.20;;;;;;;3.43;74.67;95043.16;5095003;28;20289;-69
2021/01/31 06:42:34;;;;;;;20.70;14.83;;;;;;;3.96;74.08;95035.88;5094908;28;20514;-67
2021/01/31 06:45:03;;;;;;;21.57;15.33;;;;;;;4.24;73.06;95047.66;5094560;28;20404;-67
2021/01/31 06:47:45;;;;;;;21.93;15.17;;;;;;;4.21;72.91;95040.19;5093771;28;20902;-67
2021/01/31 06:50:19;;;;;;;22.50;15.17;;;;;;;4.11;73.19;95045.56;5093202;28;20546;-66
2021/01/31 06:52:53;;;;;;;21.80;15.83;;;;;;;4.39;72.18;95046.00;5093115;28;20450;-66
2021/01/31 06:55:40;;;;;;;23.53;14.87;;;;;;;4.44;72.77;95051.50;5071409;28;20424;-68
2021/01/31 06:58:47;;;;;;;23.90;16.30;;;;;;;4.45;72.35;95053.09;5092358;28;20412;-67
2021/01/31 07:01:54;;;;;;;22.50;14.47;;;;;;;4.47;72.28;95063.34;5091661;28;20423;-67
2021/01/31 07:04:26;;;;;;;23.13;15.10;;;;;;;4.39;72.09;95066.75;5066129;28;20424;-68
2021/01/31 07:07:13;;;;;;;24.00;15.20;;;;;;;4.42;71.86;95057.81;5093604;28;20423;-68
2021/01/31 07:10:15;;;;;;;25.27;15.70;;;;;;;4.29;72.31;95056.56;5091521;28;20467;-68
2021/01/31 07:13:02;;;;;;;20.70;13.83;;;;;;;4.46;72.67;95065.09;5090351;28;20415;-67
2021/01/31 07:15:36;;;;;;;21.20;15.00;;;;;;;4.34;72.77;95074.22;5092874;28;20503;-67
2021/01/31 07:18:04;;;;;;;18.80;13.80;;;;;;;4.49;72.49;95078.72;5092569;28;20938;-67
2021/01/31 07:20:34;;;;;;;23.23;14.90;;;;;;;4.06;73.06;95090.13;5092524;28;20473;-67
2021/01/31 07:23:07;;;;;;;20.07;14.27;;;;;;;4.41;72.08;95084.72;5091907;28;20454;-67
2021/01/31 07:25:48;;;;;;;21.30;14.77;;;;;;;4.18;72.79;95092.38;5093436;28;20435;-66
2021/01/31 07:28:19;;;;;;;20.80;14.43;;;;;;;4.06;73.25;95102.28;5092169;28;20519;-67
2021/01/31 07:30:48;;;;;;;21.33;15.20;;;;;;;3.88;73.71;95100.66;5090662;28;20452;-67
2021/01/31 07:33:20;;;;;;;22.50;15.00;;;;;;;3.92;73.84;95093.38;5094210;28;20833;-68
2021/01/31 07:36:18;;;;;;;22.93;14.73;;;;;;;3.88;74.13;95095.47;5092463;28;20476;-69
2021/01/31 07:38:57;;;;;;;21.27;14.90;;;;;;;3.95;73.45;95091.28;5093330;28;20428;-69
2021/01/31 07:41:25;;;;;;;20.90;14.97;;;;;;;4.21;72.66;95084.28;5092279;28;20427;-67
2021/01/31 07:43:58;;;;;;;20.90;14.23;;;;;;;4.23;72.94;95088.31;5074819;28;20891;-68
2021/01/31 07:46:24;;;;;;;20.20;14.47;;;;;;;4.23;72.37;95103.09;5091735;28;20424;-67
2021/01/31 07:48:51;;;;;;;20.73;14.50;;;;;;;4.32;72.81;95102.09;5074167;28;20536;-66
2021/01/31 07:51:40;;;;;;;20.10;14.00;;;;;;;4.27;72.71;95104.38;5091155;28;20448;-69
2021/01/31 07:54:27;;;;;;;18.90;13.73;;;;;;;4.15;72.90;95107.31;5083967;28;20428;-68
2021/01/31 07:57:18;;;;;;;19.40;13.43;;;;;;;4.18;72.41;95107.94;5098583;28;20416;-67
2021/01/31 07:59:44;;;;;;;21.80;13.80;;;;;;;3.97;73.00;95106.66;5093310;28;20781;-67
2021/01/31 08:02:30;;;;;;;19.63;14.00;;;;;;;4.22;73.21;95106.66;5091728;28;20420;-68
2021/01/31 08:04:56;;;;;;;21.30;13.90;;;;;;;4.28;72.96;95096.44;5091069;28;20273;-68
2021/01/31 08:07:59;;;;;;;19.70;13.90;;;;;;;4.50;72.42;95096.69;5092887;28;20483;-69
2021/01/31 08:10:48;;;;;;;20.47;13.80;;;;;;;4.33;72.34;95108.91;5091238;28;20216;-69
2021/01/31 08:13:37;;;;;;;20.10;14.20;;;;;;;4.36;72.31;95108.56;5085444;28;20935;-68
2021/01/31 08:16:40;;;;;;;20.03;13.40;;;;;;;4.56;71.60;95103.00;5091397;28;20420;-67
2021/01/31 08:19:08;;;;;;;21.07;14.60;;;;;;;4.67;71.54;95104.44;5092755;28;20910;-66
2021/01/31 08:21:51;;;;;;;21.03;12.87;;;;;;;4.57;71.82;95110.66;5092541;28;20430;-67
2021/01/31 08:24:54;;;;;;;21.43;13.90;;;;;;;4.78;71.10;95111.88;5091881;28;20411;-67
2021/01/31 08:27:42;;;;;;;21.23;13.37;;;;;;;4.65;70.72;95112.41;5092667;28;20419;-67
2021/01/31 08:30:23;;;;;;;22.73;14.27;;;;;;;4.74;71.36;95116.59;5091018;28;20459;-68
2021/01/31 08:33:00;;;;;;;26.10;15.67;;;;;;;4.81;71.68;95108.13;5091392;28;20419;-66
2021/01/31 08:35:36;;;;;;;20.90;14.60;;;;;;;4.84;71.16;95108.63;5092612;28;20419;-68
2021/01/31 08:38:21;;;;;;;20.93;14.87;;;;;;;4.76;71.22;95122.44;5092882;28;20790;-66
2021/01/31 08:40:59;;;;;;;22.33;14.30;;;;;;;4.84;70.58;95118.19;5092762;28;20439;-66
2021/01/31 08:43:35;;;;;;;17.70;13.00;;;;;;;4.87;70.30;95120.44;5093273;28;20436;-67
2021/01/31 08:46:24;;;;;;;28.57;16.00;;;;;;;4.87;69.95;95117.84;5092668;28;20960;-67
2021/01/31 08:48:53;;;;;;;20.60;13.63;;;;;;;4.99;70.12;95121.69;5090061;28;20504;-66
2021/01/31 08:51:30;;;;;;;30.03;17.00;;;;;;;4.86;70.38;95130.00;5091366;28;20415;-65
2021/01/31 08:54:15;;;;;;;22.03;15.00;;;;;;;5.04;70.49;95131.56;5093848;28;20419;-67
2021/01/31 08:56:51;;;;;;;27.40;14.20;;;;;;;4.98;70.29;95122.66;5094952;28;20514;-69
2021/01/31 08:59:21;;;;;;;22.40;15.43;;;;;;;5.18;70.20;95124.84;5093656;28;20428;-66
2021/01/31 09:01:58;;;;;;;20.40;13.63;;;;;;;5.35;69.78;95123.00;5090430;28;20434;-69
2021/01/31 09:04:26;;;;;;;16.10;12.57;;;;;;;5.43;68.57;95132.53;5090660;28;20965;-68
2021/01/31 09:06:52;;;;;;;25.50;15.10;;;;;;;5.44;69.11;95132.38;5089624;28;20443;-67
2021/01/31 09:09:21;;;;;;;19.03;13.67;;;;;;;5.46;68.85;95125.22;5090376;28;20459;-67
2021/01/31 09:11:55;;;;;;;19.50;12.90;;;;;;;5.53;68.69;95127.94;5091903;28;20513;-67
2021/01/31 09:14:26;;;;;;;26.57;15.37;;;;;;;5.34;69.43;95126.56;5090284;28;20418;-67
2021/01/31 09:17:07;;;;;;;42.73;20.50;;;;;;;5.30;69.76;95136.47;5091617;28;20438;-67
2021/01/31 09:19:32;;;;;;;17.93;12.67;;;;;;;5.32;69.46;95141.53;5089935;28;20492;-68
2021/01/31 09:22:11;;;;;;;28.80;15.37;;;;;;;5.08;70.08;95138.84;5090464;28;20427;-66
2021/01/31 09:24:41;;;;;;;16.90;12.67;;;;;;;5.13;70.03;95137.56;5091511;28;20190;-68
2021/01/31 09:27:08;;;;;;;17.27;12.67;;;;;;;5.18;70.26;95136.06;5085685;28;20425;-68
2021/01/31 09:29:34;;;;;;;31.27;15.50;;;;;;;5.10;70.61;95146.50;5087189;28;20468;-68
2021/01/31 09:32:23;;;;;;;17.80;13.13;;;;;;;5.37;69.88;95149.59;5092038;28;20424;-65
2021/01/31 09:34:50;;;;;;;24.77;13.93;;;;;;;5.23;69.73;95148.53;5091517;28;20457;-67
2021/01/31 09:37:27;;;;;;;17.67;13.10;;;;;;;5.42;69.55;95149.13;5090291;28;20484;-67
2021/01/31 09:39:55;;;;;;;17.87;12.57;;;;;;;5.38;69.29;95149.44;5088588;28;20450;-67
2021/01/31 09:42:22;;;;;;;17.70;13.23;;;;;;;5.47;69.38;95149.38;5090425;28;20511;-67
2021/01/31 09:44:57;;;;;;;15.80;12.10;;;;;;;5.66;69.56;95150.75;5088747;28;20431;-68
2021/01/31 09:47:23;;;;;;;18.53;13.33;;;;;;;5.51;69.24;95156.66;5084169;28;20464;-69
2021/01/31 09:49:55;;;;;;;17.20;13.50;;;;;;;5.43;69.12;95155.91;5099288;28;20861;-68
2021/01/31 09:52:21;;;;;;;18.13;12.90;;;;;;;5.47;69.07;95155.41;5108609;28;20547;-67
2021/01/31 09:54:47;;;;;;;16.03;12.60;;;;;;;5.61;68.28;95159.06;5097422;28;20427;-67
2021/01/31 09:57:24;;;;;;;17.20;12.80;;;;;;;5.41;68.38;95158.69;5098568;28;20505;-67
2021/01/31 10:00:10;;;;;;;16.30;11.17;;;;;;;5.58;68.14;95159.41;5096290;28;20197;-68
2021/01/31 10:02:37;;;;;;;14.57;11.87;;;;;;;5.54;68.18;95168.53;5096411;28;20418;-66
2021/01/31 10:05:06;;;;;;;18.90;13.37;;;;;;;5.57;68.16;95172.56;5088500;28;20456;-68
2021/01/31 10:07:42;;;;;;;14.83;11.10;;;;;;;5.42;68.86;95164.69;5098498;28;20430;-67
2021/01/31 10:10:23;;;;;;;17.30;12.70;;;;;;;5.61;67.86;95161.66;5096241;28;20459;-68
2021/01/31 10:12:50;;;;;;;16.10;12.20;;;;;;;5.85;67.33;95152.09;5095155;28;20415;-67
2021/01/31 10:15:38;;;;;;;16.13;11.70;;;;;;;5.75;67.45;95144.50;5097136;28;20503;-67
2021/01/31 10:18:04;;;;;;;24.43;14.37;;;;;;;5.22;69.55;95139.13;5097438;28;20637;-67
2021/01/31 10:20:35;;;;;;;16.97;12.13;;;;;;;5.35;68.48;95134.19;5096163;28;20475;-67
2021/01/31 10:23:12;;;;;;;18.63;12.97;;;;;;;5.53;68.88;95143.53;5097070;28;20502;-67
2021/01/31 10:25:41;;;;;;;15.30;12.77;;;;;;;5.81;67.60;95136.03;5095957;28;20795;-64
2021/01/31 10:28:11;;;;;;;19.00;13.97;;;;;;;6.02;67.68;95139.00;5097733;28;20487;-68
2021/01/31 10:30:39;;;;;;;15.97;12.50;;;;;;;5.94;67.09;95134.66;5097473;28;20439;-65
2021/01/31 10:33:07;;;;;;;14.93;11.10;;;;;;;5.98;66.48;95128.13;5097694;28;20762;-68
2021/01/31 10:35:38;;;;;;;15.33;12.50;;;;;;;6.02;67.18;95133.81;5095221;28;20759;-67
2021/01/31 10:38:30;;;;;;;19.67;12.97;;;;;;;6.09;66.95;95126.91;5096188;28;20914;-67
2021/01/31 10:40:57;;;;;;;19.13;14.43;;;;;;;6.17;66.84;95126.88;5096873;28;20454;-68
2021/01/31 10:43:24;;;;;;;16.33;12.93;;;;;;;5.96;66.79;95127.50;5097074;28;20442;-68
2021/01/31 10:45:50;;;;;;;17.47;12.90;;;;;;;6.29;65.61;95135.88;5097573;28;20428;-67
2021/01/31 10:48:16;;;;;;;16.13;12.70;;;;;;;6.40;65.70;95141.63;5097763;28;20428;-69
2021/01/31 10:50:42;;;;;;;17.43;13.13;;;;;;;6.30;66.68;95136.66;5097079;28;20439;-68
2021/01/31 10:53:08;;;;;;;17.83;13.87;;;;;;;6.60;65.05;95139.31;5096290;28;20461;-68
2021/01/31 10:55:34;;;;;;;17.30;13.27;;;;;;;6.43;65.32;95141.25;5097180;28;20536;-68
2021/01/31 10:57:59;;;;;;;18.97;13.07;;;;;;;6.56;64.98;95141.44;5097110;28;20609;-67
2021/01/31 11:00:25;;;;;;;17.97;13.20;;;;;;;6.58;65.02;95136.88;5094549;28;20254;-67
2021/01/31 11:02:51;;;;;;;19.23;13.20;;;;;;;6.53;65.04;95141.84;5093470;28;20201;-67
2021/01/31 11:05:17;;;;;;;25.57;15.37;;;;;;;6.59;65.07;95129.91;5094018;28;20181;-66
2021/01/31 11:07:42;;;;;;;29.40;17.70;;;;;;;6.59;64.22;95135.91;5094195;28;20188;-68
2021/01/31 11:10:13;;;;;;;22.73;13.90;;;;;;;6.41;64.69;95127.63;5093929;28;20460;-68
2021/01/31 11:12:39;;;;;;;19.60;14.00;;;;;;;6.30;65.38;95129.66;5093591;28;20269;-67
2021/01/31 11:15:09;;;;;;;32.23;17.07;;;;;;;6.48;65.36;95128.53;5093484;28;20416;-68
2021/01/31 11:17:35;;;;;;;16.00;12.40;;;;;;;6.56;64.46;95120.63;5093097;28;20423;-67
2021/01/31 11:20:00;;;;;;;18.43;13.33;;;;;;;6.69;64.26;95120.03;5092100;28;20443;-67
2021/01/31 11:22:26;;;;;;;21.10;14.23;;;;;;;6.83;64.10;95110.59;5094389;28;20637;-67
2021/01/31 11:24:52;;;;;;;17.73;13.47;;;;;;;6.77;64.89;95108.72;5093999;28;20675;-67
2021/01/31 11:27:18;;;;;;;16.20;13.10;;;;;;;6.91;63.86;95112.31;5094072;28;20652;-68
2021/01/31 11:29:43;;;;;;;23.90;14.90;;;;;;;7.01;64.14;95112.03;5093095;28;20513;-67
2021/01/31 11:32:09;;;;;;;20.77;13.10;;;;;;;6.71;64.51;95109.44;5084399;28;20178;-67
2021/01/31 11:34:35;;;;;;;18.63;12.70;;;;;;;7.21;63.48;95110.47;5092609;28;20174;-67
2021/01/31 11:37:01;;;;;;;18.47;13.63;;;;;;;7.26;63.59;95119.53;5093255;28;20591;-67
2021/01/31 11:39:26;;;;;;;18.13;13.50;;;;;;;7.09;63.81;95114.53;5093601;28;20439;-68
2021/01/31 11:41:52;;;;;;;16.17;11.90;;;;;;;7.51;62.45;95120.00;5093595;28;20268;-67
2021/01/31 11:44:18;;;;;;;17.70;13.23;;;;;;;7.40;62.73;95117.88;5093386;28;20632;-68
2021/01/31 11:46:44;;;;;;;16.77;12.27;;;;;;;7.39;62.16;95119.69;5093281;28;20194;-67
2021/01/31 11:49:10;;;;;;;14.30;11.03;;;;;;;7.66;61.82;95114.78;5092972;28;20483;-68
2021/01/31 11:51:35;;;;;;;15.47;11.43;;;;;;;7.71;60.91;95120.22;5092397;28;20243;-67
2021/01/31 11:54:01;;;;;;;15.50;12.10;;;;;;;7.45;62.27;95124.16;5092642;28;20732;-66